createdAt,value
2023-03-16T00:00:32.861Z,0.47
2023-03-16T00:01:53.333Z,0.43
2023-03-16T00:02:56.156Z,0.41
2023-03-16T00:03:58.938Z,0.40
2023-03-16T00:05:01.697Z,0.38
2023-03-16T00:06:04.580Z,0.37
2023-03-16T00:07:10.383Z,0.38
2023-03-16T00:08:14.445Z,0.35
2023-03-16T00:09:17.492Z,0.34
2023-03-16T00:10:27.675Z,0.35
2023-03-16T00:11:30.802Z,0.35
2023-03-16T00:12:34.908Z,0.31
2023-03-16T00:13:37.705Z,0.29
2023-03-16T00:14:40.411Z,0.27
2023-03-16T00:15:51.255Z,0.30
2023-03-16T00:16:54.093Z,0.26
2023-03-16T00:17:56.887Z,0.26
2023-03-16T00:18:59.671Z,0.22
2023-03-16T00:20:06.655Z,0.20
2023-03-16T00:21:10.190Z,0.20
2023-03-16T00:22:14.856Z,0.20
2023-03-16T00:23:17.934Z,0.16
2023-03-16T00:24:20.733Z,0.17
2023-03-16T00:25:24.440Z,0.21
2023-03-16T00:26:27.489Z,0.22
2023-03-16T00:27:31.141Z,0.23
2023-03-16T00:28:35.584Z,0.21
2023-03-16T00:29:38.348Z,0.19
2023-03-16T00:30:41.114Z,0.19
2023-03-16T00:31:44.164Z,0.19
2023-03-16T00:32:47.096Z,0.18
2023-03-16T00:33:53.528Z,0.20
2023-03-16T00:34:56.825Z,0.17
2023-03-16T00:36:02.702Z,0.15
2023-03-16T00:37:05.870Z,0.18
2023-03-16T00:38:08.660Z,0.14
2023-03-16T00:39:11.903Z,0.13
2023-03-16T00:40:14.844Z,0.12
2023-03-16T00:41:18.696Z,0.10
2023-03-16T00:42:27.575Z,0.09
2023-03-16T00:43:41.403Z,0.08
2023-03-16T00:44:45.317Z,0.05
2023-03-16T00:45:48.180Z,0.06
2023-03-16T00:46:51.815Z,0.04
2023-03-16T00:47:54.774Z,0.02
2023-03-16T00:48:57.770Z,0.01
2023-03-16T00:50:01.621Z,-0.01
2023-03-16T00:51:06.881Z,0.02
2023-03-16T00:52:14.727Z,0.01
2023-03-16T00:53:17.590Z,-0.01
2023-03-16T00:54:22.215Z,-0.04
2023-03-16T00:55:25.014Z,-0.02
2023-03-16T00:56:27.776Z,-0.06
2023-03-16T00:57:30.566Z,-0.06
2023-03-16T00:58:36.001Z,-0.05
2023-03-16T00:59:39.443Z,-0.05
2023-03-16T01:00:43.076Z,-0.08
2023-03-16T01:01:46.869Z,-0.08
2023-03-16T01:02:50.164Z,-0.06
2023-03-16T01:03:55.017Z,-0.07
2023-03-16T01:04:58.399Z,-0.11
2023-03-16T01:06:10.858Z,-0.13
2023-03-16T01:07:14.572Z,-0.13
2023-03-16T01:08:17.355Z,-0.18
2023-03-16T01:09:20.542Z,-0.18
2023-03-16T01:10:23.310Z,-0.18
2023-03-16T01:11:26.082Z,-0.17
2023-03-16T01:12:28.951Z,-0.19
2023-03-16T01:13:33.792Z,-0.21
2023-03-16T01:14:37.913Z,-0.23
2023-03-16T01:15:40.763Z,-0.25
2023-03-16T01:16:46.008Z,-0.24
2023-03-16T01:17:49.179Z,-0.23
2023-03-16T01:18:56.241Z,-0.25
2023-03-16T01:19:59.088Z,-0.26
2023-03-16T01:21:03.769Z,-0.28
2023-03-16T01:22:10.691Z,-0.26
2023-03-16T01:23:14.489Z,-0.29
2023-03-16T01:24:17.276Z,-0.31
2023-03-16T01:25:21.373Z,-0.29
2023-03-16T01:26:25.318Z,-0.30
2023-03-16T01:27:28.527Z,-0.29
2023-03-16T01:28:32.690Z,-0.26
2023-03-16T01:29:35.693Z,-0.27
2023-03-16T01:30:40.455Z,-0.28
2023-03-16T01:31:43.393Z,-0.25
2023-03-16T01:32:46.486Z,-0.24
2023-03-16T01:33:50.095Z,-0.23
2023-03-16T01:34:57.326Z,-0.23
2023-03-16T01:36:12.765Z,-0.24
2023-03-16T01:37:24.580Z,-0.24
2023-03-16T01:38:33.604Z,-0.24
2023-03-16T01:39:37.347Z,-0.25
2023-03-16T01:40:40.812Z,-0.28
2023-03-16T01:41:46.146Z,-0.30
2023-03-16T01:42:59.402Z,-0.28
2023-03-16T01:44:02.677Z,-0.31
2023-03-16T01:45:06.778Z,-0.32
2023-03-16T01:46:20.558Z,-0.31
2023-03-16T01:47:24.579Z,-0.31
2023-03-16T01:48:27.840Z,-0.32
2023-03-16T01:49:36.970Z,-0.33
2023-03-16T01:50:42.151Z,-0.37
2023-03-16T01:51:56.384Z,-0.35
2023-03-16T01:53:01.633Z,-0.38
2023-03-16T01:54:14.625Z,-0.41
2023-03-16T01:55:18.397Z,-0.41
2023-03-16T01:56:27.296Z,-0.46
2023-03-16T01:57:37.029Z,-0.46
2023-03-16T01:58:43.239Z,-0.48
2023-03-16T01:59:58.076Z,-0.48
2023-03-16T02:01:01.529Z,-0.48
2023-03-16T02:02:05.711Z,-0.51
2023-03-16T02:03:14.031Z,-0.51
2023-03-16T02:04:56.096Z,-0.51
2023-03-16T02:06:23.312Z,-0.54
2023-03-16T02:07:34.633Z,-0.56
2023-03-16T02:08:40.164Z,-0.55
2023-03-16T02:09:48.197Z,-0.55
2023-03-16T02:10:54.755Z,-0.58
2023-03-16T02:11:58.456Z,-0.58
2023-03-16T02:13:02.337Z,-0.62
2023-03-16T02:14:09.792Z,-0.63
2023-03-16T02:15:14.295Z,-0.61
2023-03-16T02:16:19.725Z,-0.61
2023-03-16T02:17:28.197Z,-0.64
2023-03-16T02:18:35.312Z,-0.62
2023-03-16T02:19:49.392Z,-0.63
2023-03-16T02:21:35.531Z,-0.63
2023-03-16T02:22:43.240Z,-0.67
2023-03-16T02:23:48.240Z,-0.68
2023-03-16T02:24:53.315Z,-0.69
2023-03-16T02:26:13.774Z,-0.74
2023-03-16T02:27:43.019Z,-0.74
2023-03-16T02:29:23.212Z,-0.74
2023-03-16T02:30:26.663Z,-0.75
2023-03-16T02:31:37.687Z,-0.75
2023-03-16T02:32:43.430Z,-0.78
2023-03-16T02:33:48.847Z,-0.78
2023-03-16T02:34:52.040Z,-0.80
2023-03-16T02:35:54.905Z,-0.82
2023-03-16T02:36:59.206Z,-0.82
2023-03-16T02:38:02.246Z,-0.83
2023-03-16T02:39:08.169Z,-0.82
2023-03-16T02:40:28.296Z,-0.83
2023-03-16T02:41:32.893Z,-0.84
2023-03-16T02:42:35.941Z,-0.88
2023-03-16T02:43:42.697Z,-0.84
2023-03-16T02:44:57.970Z,-0.89
2023-03-16T02:46:05.395Z,-0.84
2023-03-16T02:47:16.622Z,-0.88
2023-03-16T02:48:35.888Z,-0.88
2023-03-16T02:49:45.232Z,-0.86
2023-03-16T02:50:52.032Z,-0.88
2023-03-16T02:51:54.873Z,-0.90
2023-03-16T02:52:58.117Z,-0.89
2023-03-16T02:54:01.321Z,-0.87
2023-03-16T02:55:08.403Z,-0.90
2023-03-16T02:56:11.637Z,-0.90
2023-03-16T02:57:16.960Z,-0.89
2023-03-16T02:58:20.275Z,-0.91
2023-03-16T02:59:23.204Z,-0.91
2023-03-16T03:00:26.599Z,-0.90
2023-03-16T03:01:31.835Z,-0.88
2023-03-16T03:02:34.771Z,-0.88
2023-03-16T03:03:37.636Z,-0.90
2023-03-16T03:04:42.006Z,-0.86
2023-03-16T03:05:44.818Z,-0.89
2023-03-16T03:06:47.710Z,-0.86
2023-03-16T03:07:51.341Z,-0.88
2023-03-16T03:08:54.127Z,-0.89
2023-03-16T03:09:57.718Z,-0.88
2023-03-16T03:11:00.768Z,-0.88
2023-03-16T03:12:04.791Z,-0.87
2023-03-16T03:13:07.844Z,-0.91
2023-03-16T03:14:10.823Z,-0.91
2023-03-16T03:15:14.884Z,-0.91
2023-03-16T03:16:25.230Z,-0.88
2023-03-16T03:17:30.216Z,-0.92
2023-03-16T03:18:34.691Z,-0.90
2023-03-16T03:19:37.506Z,-0.93
2023-03-16T03:20:40.293Z,-0.91
2023-03-16T03:21:43.099Z,-0.92
2023-03-16T03:22:48.798Z,-0.91
2023-03-16T03:23:52.263Z,-0.91
2023-03-16T03:24:55.015Z,-0.91
2023-03-16T03:25:59.126Z,-0.88
2023-03-16T03:27:05.926Z,-0.89
2023-03-16T03:28:09.321Z,-0.87
2023-03-16T03:29:12.634Z,-0.90
2023-03-16T03:30:18.972Z,-0.88
2023-03-16T03:31:23.618Z,-0.88
2023-03-16T03:32:27.280Z,-0.91
2023-03-16T03:33:30.232Z,-0.88
2023-03-16T03:34:33.361Z,-0.91
2023-03-16T03:35:36.802Z,-0.89
2023-03-16T03:36:39.843Z,-0.90
2023-03-16T03:37:46.797Z,-0.86
2023-03-16T03:38:50.159Z,-0.88
2023-03-16T03:39:54.424Z,-0.86
2023-03-16T03:41:00.849Z,-0.87
2023-03-16T03:42:06.871Z,-0.86
2023-03-16T03:43:09.696Z,-0.89
2023-03-16T03:44:14.831Z,-0.89
2023-03-16T03:45:18.374Z,-0.89
2023-03-16T03:46:21.457Z,-0.89
2023-03-16T03:47:24.432Z,-0.86
2023-03-16T03:48:27.887Z,-0.88
2023-03-16T03:49:31.953Z,-0.89
2023-03-16T03:50:34.778Z,-0.87
2023-03-16T03:51:50.447Z,-0.88
2023-03-16T03:52:59.683Z,-0.88
2023-03-16T03:54:03.284Z,-0.91
2023-03-16T03:55:17.927Z,-0.89
2023-03-16T03:56:21.024Z,-0.91
2023-03-16T03:57:23.899Z,-0.93
2023-03-16T03:58:27.468Z,-0.94
2023-03-16T03:59:30.445Z,-0.91
2023-03-16T04:00:51.916Z,-0.93
2023-03-16T04:01:54.792Z,-0.96
2023-03-16T04:02:58.668Z,-0.98
2023-03-16T04:04:07.188Z,-0.97
2023-03-16T04:05:10.387Z,-0.98
2023-03-16T04:06:13.236Z,-1.00
2023-03-16T04:07:16.051Z,-1.00
2023-03-16T04:08:19.516Z,-1.01
2023-03-16T04:09:22.301Z,-1.02
2023-03-16T04:10:27.402Z,-1.00
2023-03-16T04:11:30.635Z,-1.04
2023-03-16T04:12:33.610Z,-1.03
2023-03-16T04:13:36.569Z,-1.04
2023-03-16T04:14:39.398Z,-1.08
2023-03-16T04:15:46.939Z,-1.08
2023-03-16T04:16:55.234Z,-1.07
2023-03-16T04:17:59.279Z,-1.10
2023-03-16T04:19:02.101Z,-1.11
2023-03-16T04:20:14.234Z,-1.12
2023-03-16T04:21:18.970Z,-1.09
2023-03-16T04:22:23.322Z,-1.09
2023-03-16T04:23:27.371Z,-1.12
2023-03-16T04:24:34.304Z,-1.13
2023-03-16T04:25:38.682Z,-1.11
2023-03-16T04:26:45.043Z,-1.14
2023-03-16T04:27:48.061Z,-1.12
2023-03-16T04:28:52.645Z,-1.14
2023-03-16T04:29:58.762Z,-1.16
2023-03-16T04:31:07.626Z,-1.16
2023-03-16T04:32:15.308Z,-1.14
2023-03-16T04:33:18.684Z,-1.17
2023-03-16T04:34:25.277Z,-1.17
2023-03-16T04:35:32.147Z,-1.15
2023-03-16T04:36:35.254Z,-1.18
2023-03-16T04:37:38.225Z,-1.19
2023-03-16T04:38:43.279Z,-1.20
2023-03-16T04:39:46.328Z,-1.20
2023-03-16T04:40:49.098Z,-1.19
2023-03-16T04:41:54.246Z,-1.22
2023-03-16T04:42:58.648Z,-1.23
2023-03-16T04:44:01.653Z,-1.23
2023-03-16T04:45:04.943Z,-1.21
2023-03-16T04:46:08.348Z,-1.22
2023-03-16T04:47:12.489Z,-1.24
2023-03-16T04:48:16.789Z,-1.24
2023-03-16T04:49:19.773Z,-1.25
2023-03-16T04:50:22.893Z,-1.25
2023-03-16T04:51:28.899Z,-1.26
2023-03-16T04:52:40.022Z,-1.22
2023-03-16T04:53:44.625Z,-1.26
2023-03-16T04:54:56.680Z,-1.24
2023-03-16T04:56:00.820Z,-1.26
2023-03-16T04:57:03.765Z,-1.25
2023-03-16T04:58:19.569Z,-1.27
2023-03-16T04:59:25.413Z,-1.30
2023-03-16T05:00:35.338Z,-1.26
2023-03-16T05:01:46.076Z,-1.25
2023-03-16T05:02:50.458Z,-1.29
2023-03-16T05:03:53.360Z,-1.26
2023-03-16T05:04:56.534Z,-1.26
2023-03-16T05:05:59.616Z,-1.24
2023-03-16T05:07:02.906Z,-1.27
2023-03-16T05:08:10.894Z,-1.26
2023-03-16T05:09:16.239Z,-1.23
2023-03-16T05:10:20.213Z,-1.24
2023-03-16T05:11:23.407Z,-1.24
2023-03-16T05:12:31.458Z,-1.20
2023-03-16T05:13:37.322Z,-1.19
2023-03-16T05:14:40.330Z,-1.18
2023-03-16T05:15:53.814Z,-1.18
2023-03-16T05:17:04.490Z,-1.19
2023-03-16T05:18:07.776Z,-1.17
2023-03-16T05:19:10.617Z,-1.17
2023-03-16T05:20:25.975Z,-1.15
2023-03-16T05:21:34.268Z,-1.13
2023-03-16T05:22:44.780Z,-1.12
2023-03-16T05:24:08.707Z,-1.12
2023-03-16T05:25:15.509Z,-1.13
2023-03-16T05:26:20.308Z,-1.09
2023-03-16T05:27:23.337Z,-1.10
2023-03-16T05:28:26.081Z,-1.09
2023-03-16T05:29:36.663Z,-1.10
2023-03-16T05:30:39.469Z,-1.08
2023-03-16T05:31:46.774Z,-1.05
2023-03-16T05:32:51.714Z,-1.04
2023-03-16T05:33:54.766Z,-1.04
2023-03-16T05:34:58.686Z,-0.99
2023-03-16T05:36:03.074Z,-1.00
2023-03-16T05:37:06.505Z,-0.98
2023-03-16T05:38:10.115Z,-0.93
2023-03-16T05:39:15.595Z,-0.86
2023-03-16T05:40:23.113Z,-0.81
2023-03-16T05:41:35.624Z,-0.80
2023-03-16T05:42:57.969Z,-0.71
2023-03-16T05:44:00.890Z,-0.64
2023-03-16T05:45:10.336Z,-0.55
2023-03-16T05:46:21.923Z,-0.49
2023-03-16T05:47:25.072Z,-0.48
2023-03-16T05:48:30.996Z,-0.41
2023-03-16T05:49:34.568Z,-0.36
2023-03-16T05:50:38.908Z,-0.31
2023-03-16T05:51:41.743Z,-0.24
2023-03-16T05:52:45.691Z,-0.12
2023-03-16T05:53:58.714Z,0.00
2023-03-16T05:55:09.503Z,0.13
2023-03-16T05:56:12.636Z,0.28
2023-03-16T05:57:17.481Z,0.42
2023-03-16T05:58:21.852Z,0.59
2023-03-16T05:59:25.275Z,0.76
2023-03-16T06:00:31.919Z,1.01
2023-03-16T06:01:43.258Z,1.21
2023-03-16T06:02:48.504Z,1.38
2023-03-16T06:03:54.476Z,1.56
2023-03-16T06:05:00.333Z,1.83
2023-03-16T06:06:03.501Z,2.03
2023-03-16T06:07:09.963Z,2.28
2023-03-16T06:08:12.851Z,2.49
2023-03-16T06:09:16.164Z,2.69
2023-03-16T06:10:19.505Z,2.92
2023-03-16T06:11:22.931Z,3.10
2023-03-16T06:12:25.829Z,3.25
2023-03-16T06:13:28.677Z,3.35
2023-03-16T06:14:31.984Z,3.48
2023-03-16T06:15:35.620Z,3.61
2023-03-16T06:16:38.745Z,3.74
2023-03-16T06:17:42.012Z,3.85
2023-03-16T06:18:45.101Z,3.90
2023-03-16T06:19:47.949Z,3.91
2023-03-16T06:20:51.015Z,3.96
2023-03-16T06:21:53.966Z,4.06
2023-03-16T06:22:56.759Z,4.15
2023-03-16T06:23:59.610Z,4.25
2023-03-16T06:25:02.468Z,4.37
2023-03-16T06:26:05.550Z,4.44
2023-03-16T06:27:09.933Z,4.46
2023-03-16T06:28:23.318Z,4.57
2023-03-16T06:29:26.430Z,4.68
2023-03-16T06:30:30.218Z,4.80
2023-03-16T06:31:34.131Z,4.97
2023-03-16T06:32:38.414Z,5.10
2023-03-16T06:33:41.595Z,5.12
2023-03-16T06:34:44.425Z,5.16
2023-03-16T06:35:51.375Z,5.18
2023-03-16T06:37:02.814Z,5.28
2023-03-16T06:38:05.710Z,5.34
2023-03-16T06:39:34.857Z,5.37
2023-03-16T06:40:37.612Z,5.34
2023-03-16T06:41:42.781Z,5.47
2023-03-16T06:42:47.432Z,5.66
2023-03-16T06:43:51.164Z,5.75
2023-03-16T06:44:53.987Z,5.80
2023-03-16T06:45:57.413Z,5.85
2023-03-16T06:47:01.196Z,5.88
2023-03-16T06:48:04.258Z,5.93
2023-03-16T06:49:07.297Z,5.93
2023-03-16T06:50:12.002Z,5.95
2023-03-16T06:51:16.863Z,5.96
2023-03-16T06:52:21.628Z,6.04
2023-03-16T06:53:24.597Z,6.07
2023-03-16T06:54:27.728Z,6.14
2023-03-16T06:55:30.735Z,6.16
2023-03-16T06:56:33.839Z,6.19
2023-03-16T06:57:36.612Z,6.18
2023-03-16T06:58:39.542Z,6.15
2023-03-16T06:59:42.824Z,6.07
2023-03-16T07:00:45.721Z,6.09
2023-03-16T07:01:50.366Z,6.11
2023-03-16T07:02:53.293Z,5.99
2023-03-16T07:03:56.648Z,5.93
2023-03-16T07:05:15.688Z,5.86
2023-03-16T07:06:18.777Z,5.88
2023-03-16T07:07:21.957Z,5.81
2023-03-16T07:08:24.863Z,5.75
2023-03-16T07:09:27.753Z,5.70
2023-03-16T07:10:31.063Z,5.61
2023-03-16T07:11:35.378Z,5.61
2023-03-16T07:12:38.260Z,5.56
2023-03-16T07:13:41.809Z,5.54
2023-03-16T07:14:44.655Z,5.70
2023-03-16T07:15:52.258Z,5.82
2023-03-16T07:16:56.475Z,5.96
2023-03-16T07:17:59.485Z,5.98
2023-03-16T07:19:02.246Z,5.99
2023-03-16T07:20:06.034Z,6.00
2023-03-16T07:21:08.906Z,5.91
2023-03-16T07:22:12.752Z,5.84
2023-03-16T07:23:16.132Z,5.79
2023-03-16T07:24:19.579Z,5.82
2023-03-16T07:25:22.386Z,5.89
2023-03-16T07:26:28.322Z,5.94
2023-03-16T07:27:34.231Z,5.97
2023-03-16T07:28:39.769Z,5.97
2023-03-16T07:29:42.979Z,6.00
2023-03-16T07:31:02.601Z,6.05
2023-03-16T07:32:08.611Z,5.97
2023-03-16T07:33:14.472Z,5.87
2023-03-16T07:34:18.287Z,5.78
2023-03-16T07:35:24.242Z,5.70
2023-03-16T07:36:28.537Z,5.65
2023-03-16T07:37:35.077Z,5.65
2023-03-16T07:38:38.452Z,5.67
2023-03-16T07:39:42.049Z,5.70
2023-03-16T07:40:52.283Z,5.66
2023-03-16T07:41:57.226Z,5.63
2023-03-16T07:43:20.330Z,5.57
2023-03-16T07:44:26.353Z,5.58
2023-03-16T07:45:31.607Z,5.58
2023-03-16T07:46:34.738Z,5.53
2023-03-16T07:47:37.979Z,5.48
2023-03-16T07:48:54.658Z,5.42
2023-03-16T07:49:57.486Z,5.37
2023-03-16T07:51:01.878Z,5.35
2023-03-16T07:52:06.013Z,5.39
2023-03-16T07:53:17.624Z,5.45
2023-03-16T07:54:24.403Z,5.47
2023-03-16T07:55:27.576Z,5.45
2023-03-16T07:56:42.326Z,5.43
2023-03-16T07:57:53.262Z,5.46
2023-03-16T07:59:02.586Z,5.42
2023-03-16T08:00:07.892Z,5.37
2023-03-16T08:01:16.379Z,5.34
2023-03-16T08:02:20.338Z,5.32
2023-03-16T08:03:23.756Z,5.35
2023-03-16T08:04:26.874Z,5.39
2023-03-16T08:05:29.855Z,5.32
2023-03-16T08:06:35.285Z,5.33
2023-03-16T08:07:38.675Z,5.32
2023-03-16T08:08:47.905Z,5.34
2023-03-16T08:09:58.109Z,5.42
2023-03-16T08:11:05.995Z,5.40
2023-03-16T08:12:25.491Z,5.39
2023-03-16T08:13:28.776Z,5.37
2023-03-16T08:14:35.626Z,5.38
2023-03-16T08:15:47.789Z,5.41
2023-03-16T08:17:00.740Z,5.41
2023-03-16T08:18:03.717Z,5.38
2023-03-16T08:19:07.138Z,5.41
2023-03-16T08:20:14.639Z,5.43
2023-03-16T08:21:20.027Z,5.43
2023-03-16T08:22:23.709Z,5.44
2023-03-16T08:23:26.565Z,5.48
2023-03-16T08:24:31.109Z,5.51
2023-03-16T08:25:34.918Z,5.56
2023-03-16T08:26:42.613Z,5.65
2023-03-16T08:27:46.738Z,5.72
2023-03-16T08:28:53.581Z,5.79
2023-03-16T08:29:56.874Z,5.79
2023-03-16T08:31:01.169Z,5.82
2023-03-16T08:32:12.673Z,5.90
2023-03-16T08:33:23.115Z,5.98
2023-03-16T08:34:27.663Z,6.04
2023-03-16T08:35:30.633Z,6.07
2023-03-16T08:36:33.586Z,6.06
2023-03-16T08:37:37.209Z,6.09
2023-03-16T08:38:40.189Z,6.18
2023-03-16T08:39:45.459Z,6.23
2023-03-16T08:40:51.050Z,6.27
2023-03-16T08:41:56.779Z,6.26
2023-03-16T08:43:12.119Z,6.30
2023-03-16T08:44:15.001Z,6.35
2023-03-16T08:45:19.995Z,6.37
2023-03-16T08:46:24.362Z,6.47
2023-03-16T08:47:31.094Z,6.56
2023-03-16T08:48:35.124Z,6.63
2023-03-16T08:49:38.398Z,6.66
2023-03-16T08:50:46.232Z,6.71
2023-03-16T08:51:49.963Z,6.82
2023-03-16T08:52:52.828Z,6.95
2023-03-16T08:53:55.766Z,7.06
2023-03-16T08:55:03.352Z,7.16
2023-03-16T08:56:09.815Z,7.24
2023-03-16T08:57:12.584Z,7.30
2023-03-16T08:58:15.472Z,7.35
2023-03-16T08:59:29.175Z,7.37
2023-03-16T09:00:32.786Z,7.40
2023-03-16T09:01:35.838Z,7.42
2023-03-16T09:02:40.707Z,7.41
2023-03-16T09:03:46.263Z,7.38
2023-03-16T09:04:49.970Z,7.45
2023-03-16T09:05:53.168Z,7.57
2023-03-16T09:07:08.441Z,7.60
2023-03-16T09:08:12.718Z,7.71
2023-03-16T09:09:15.711Z,7.72
2023-03-16T09:10:19.430Z,7.80
2023-03-16T09:11:23.190Z,7.84
2023-03-16T09:12:26.474Z,7.99
2023-03-16T09:13:30.690Z,8.02
2023-03-16T09:14:33.635Z,8.06
2023-03-16T09:15:36.611Z,8.03
2023-03-16T09:16:39.431Z,8.04
2023-03-16T09:17:45.237Z,8.04
2023-03-16T09:18:48.095Z,8.06
2023-03-16T09:19:52.432Z,8.07
2023-03-16T09:21:02.380Z,8.21
2023-03-16T09:22:05.206Z,8.32
2023-03-16T09:23:08.166Z,8.33
2023-03-16T09:24:11.433Z,8.28
2023-03-16T09:25:14.496Z,8.28
2023-03-16T09:26:17.733Z,8.26
2023-03-16T09:27:21.129Z,8.25
2023-03-16T09:28:25.316Z,8.29
2023-03-16T09:29:28.497Z,8.28
2023-03-16T09:30:32.542Z,8.34
2023-03-16T09:31:36.347Z,8.42
2023-03-16T09:32:39.547Z,8.35
2023-03-16T09:33:42.969Z,8.26
2023-03-16T09:34:45.890Z,8.25
2023-03-16T09:35:49.330Z,8.21
2023-03-16T09:36:53.572Z,8.16
2023-03-16T09:38:06.653Z,8.01
2023-03-16T09:39:11.662Z,7.95
2023-03-16T09:40:26.661Z,7.95
2023-03-16T09:41:35.172Z,7.96
2023-03-16T09:42:49.406Z,7.99
2023-03-16T09:44:02.960Z,8.08
2023-03-16T09:45:26.611Z,8.19
2023-03-16T09:46:35.817Z,8.20
2023-03-16T09:47:41.692Z,8.20
2023-03-16T09:48:45.722Z,8.25
2023-03-16T09:49:51.434Z,8.32
2023-03-16T09:50:57.217Z,8.47
2023-03-16T09:52:20.476Z,8.54
2023-03-16T09:53:34.288Z,8.54
2023-03-16T09:54:43.928Z,8.61
2023-03-16T09:55:51.130Z,8.72
2023-03-16T09:56:55.904Z,8.83
2023-03-16T09:58:01.067Z,8.84
2023-03-16T09:59:11.908Z,8.92
2023-03-16T10:00:26.794Z,9.01
2023-03-16T10:02:04.471Z,9.23
2023-03-16T10:03:57.686Z,9.30
2023-03-16T10:05:10.546Z,9.26
2023-03-16T10:06:13.946Z,9.32
2023-03-16T10:07:36.738Z,9.32
2023-03-16T10:08:42.977Z,9.20
2023-03-16T10:10:19.466Z,9.20
2023-03-16T10:11:38.097Z,9.20
2023-03-16T10:12:45.673Z,9.37
2023-03-16T10:13:55.071Z,9.43
2023-03-16T10:15:06.893Z,9.57
2023-03-16T10:16:34.833Z,9.63
2023-03-16T10:17:45.726Z,9.63
2023-03-16T10:18:51.287Z,9.66
2023-03-16T10:20:00.222Z,9.73
2023-03-16T10:21:03.569Z,9.92
2023-03-16T10:22:21.090Z,10.09
2023-03-16T10:23:25.324Z,10.24
2023-03-16T10:24:56.964Z,10.36
2023-03-16T10:25:59.727Z,10.52
2023-03-16T10:27:04.814Z,10.70
2023-03-16T10:28:07.743Z,10.83
2023-03-16T10:29:14.656Z,10.84
2023-03-16T10:30:25.880Z,10.89
2023-03-16T10:31:29.428Z,10.86
2023-03-16T10:32:35.647Z,10.87
2023-03-16T10:33:39.685Z,10.89
2023-03-16T10:34:54.131Z,10.90
2023-03-16T10:36:15.833Z,10.79
2023-03-16T10:37:20.374Z,10.58
2023-03-16T10:38:40.686Z,10.38
2023-03-16T10:39:43.696Z,10.14
2023-03-16T10:40:46.557Z,10.02
2023-03-16T10:41:57.447Z,9.92
2023-03-16T10:43:26.436Z,9.71
2023-03-16T10:44:33.473Z,9.60
2023-03-16T10:45:36.733Z,9.56
2023-03-16T10:46:48.471Z,9.46
2023-03-16T10:47:51.558Z,9.37
2023-03-16T10:49:00.378Z,9.27
2023-03-16T10:50:18.331Z,9.21
2023-03-16T10:51:26.136Z,9.09
2023-03-16T10:52:39.910Z,9.00
2023-03-16T10:53:44.663Z,8.88
2023-03-16T10:54:54.870Z,8.82
2023-03-16T10:55:59.519Z,8.71
2023-03-16T10:57:19.438Z,8.61
2023-03-16T10:58:30.661Z,8.53
2023-03-16T10:59:35.254Z,8.48
2023-03-16T11:00:43.325Z,8.40
2023-03-16T11:01:53.306Z,8.33
2023-03-16T11:02:58.449Z,8.31
2023-03-16T11:04:02.237Z,8.26
2023-03-16T11:05:16.120Z,8.22
2023-03-16T11:06:25.871Z,8.31
2023-03-16T11:07:28.677Z,8.43
2023-03-16T11:08:34.099Z,8.63
2023-03-16T11:09:37.248Z,8.70
2023-03-16T11:10:54.665Z,8.71
2023-03-16T11:12:00.256Z,8.63
2023-03-16T11:13:12.533Z,8.64
2023-03-16T11:14:18.742Z,8.57
2023-03-16T11:15:26.040Z,8.50
2023-03-16T11:16:41.673Z,8.45
2023-03-16T11:17:47.787Z,8.38
2023-03-16T11:19:27.214Z,8.37
2023-03-16T11:20:33.557Z,8.29
2023-03-16T11:21:58.941Z,8.25
2023-03-16T11:23:02.646Z,8.14
2023-03-16T11:24:13.891Z,8.12
2023-03-16T11:25:20.748Z,8.01
2023-03-16T11:26:33.996Z,7.93
2023-03-16T11:27:51.528Z,7.85
2023-03-16T11:29:09.361Z,7.78
2023-03-16T11:30:29.257Z,7.71
2023-03-16T11:31:43.058Z,7.66
2023-03-16T11:32:54.362Z,7.71
2023-03-16T11:33:58.249Z,7.74
2023-03-16T11:35:04.606Z,7.75
2023-03-16T11:36:28.050Z,7.80
2023-03-16T11:38:15.609Z,7.82
2023-03-16T11:39:40.626Z,7.85
2023-03-16T11:40:54.483Z,7.86
2023-03-16T11:42:16.136Z,7.92
2023-03-16T11:43:44.101Z,7.88
2023-03-16T11:44:59.471Z,7.88
2023-03-16T11:46:14.087Z,7.97
2023-03-16T11:47:35.527Z,7.94
2023-03-16T11:48:38.383Z,7.92
2023-03-16T11:50:38.756Z,7.93
2023-03-16T11:52:26.578Z,7.87
2023-03-16T11:53:53.734Z,7.89
2023-03-16T11:55:15.594Z,7.91
2023-03-16T11:56:34.861Z,8.04
2023-03-16T11:58:03.386Z,8.10
2023-03-16T11:59:30.384Z,8.13
2023-03-16T12:00:45.570Z,8.19
2023-03-16T12:02:07.388Z,8.26
2023-03-16T12:03:28.868Z,8.34
2023-03-16T12:05:11.744Z,8.42
2023-03-16T12:06:53.375Z,8.41
2023-03-16T12:08:19.053Z,8.30
2023-03-16T12:09:23.045Z,8.20
2023-03-16T12:10:45.675Z,8.12
2023-03-16T12:12:11.880Z,8.03
2023-03-16T12:13:46.911Z,7.96
2023-03-16T12:15:03.500Z,7.92
2023-03-16T12:16:11.802Z,7.89
2023-03-16T12:17:26.037Z,7.89
2023-03-16T12:18:34.591Z,7.86
2023-03-16T12:19:40.262Z,7.87
2023-03-16T12:20:50.467Z,7.92
2023-03-16T12:22:06.669Z,7.92
2023-03-16T12:23:22.753Z,7.92
2023-03-16T12:24:33.333Z,7.86
2023-03-16T12:25:40.939Z,7.80
2023-03-16T12:26:44.064Z,7.74
2023-03-16T12:27:49.009Z,7.68
2023-03-16T12:28:54.354Z,7.67
2023-03-16T12:30:36.196Z,7.68
2023-03-16T12:31:50.284Z,7.64
2023-03-16T12:33:02.258Z,7.61
2023-03-16T12:34:14.290Z,7.59
2023-03-16T12:35:43.899Z,7.57
2023-03-16T12:36:47.008Z,7.55
2023-03-16T12:37:56.022Z,7.55
2023-03-16T12:39:04.756Z,7.54
2023-03-16T12:40:27.231Z,7.52
2023-03-16T12:41:46.259Z,7.49
2023-03-16T12:43:01.529Z,7.47
2023-03-16T12:44:22.524Z,7.44
2023-03-16T12:45:47.108Z,7.39
2023-03-16T12:47:08.213Z,7.37
2023-03-16T12:48:38.817Z,7.36
2023-03-16T12:49:43.242Z,7.36
2023-03-16T12:50:59.925Z,7.37
2023-03-16T12:52:11.083Z,7.37
2023-03-16T12:53:27.212Z,7.37
2023-03-16T12:54:30.391Z,7.36
2023-03-16T12:55:33.559Z,7.37
2023-03-16T12:56:45.644Z,7.37
2023-03-16T12:57:51.621Z,7.38
2023-03-16T12:58:57.520Z,7.37
2023-03-16T13:00:01.682Z,7.37
2023-03-16T13:01:10.566Z,7.38
2023-03-16T13:02:20.169Z,7.40
2023-03-16T13:03:25.310Z,7.40
2023-03-16T13:04:44.687Z,7.35
2023-03-16T13:05:55.502Z,7.36
2023-03-16T13:07:08.382Z,7.35
2023-03-16T13:08:15.982Z,7.36
2023-03-16T13:09:28.200Z,7.37
2023-03-16T13:10:31.517Z,7.39
2023-03-16T13:11:56.411Z,7.41
2023-03-16T13:13:18.309Z,7.42
2023-03-16T13:14:33.899Z,7.42
2023-03-16T13:15:39.126Z,7.42
2023-03-16T13:16:43.730Z,7.41
2023-03-16T13:18:17.518Z,7.40
2023-03-16T13:19:30.556Z,7.37
2023-03-16T13:20:57.084Z,7.33
2023-03-16T13:22:20.995Z,7.30
2023-03-16T13:23:27.966Z,7.27
2023-03-16T13:24:42.452Z,7.24
2023-03-16T13:26:00.403Z,7.20
2023-03-16T13:27:18.188Z,7.18
2023-03-16T13:28:28.807Z,7.16
2023-03-16T13:29:32.819Z,7.15
2023-03-16T13:30:36.570Z,7.15
2023-03-16T13:31:42.065Z,7.15
2023-03-16T13:32:45.282Z,7.18
2023-03-16T13:33:51.053Z,7.21
2023-03-16T13:34:58.508Z,7.26
2023-03-16T13:36:06.516Z,7.31
2023-03-16T13:37:19.997Z,7.35
2023-03-16T13:38:28.679Z,7.39
2023-03-16T13:39:33.796Z,7.42
2023-03-16T13:40:46.352Z,7.45
2023-03-16T13:41:59.734Z,7.52
2023-03-16T13:43:02.613Z,7.56
2023-03-16T13:44:11.766Z,7.58
2023-03-16T13:45:16.505Z,7.58
2023-03-16T13:46:22.446Z,7.60
2023-03-16T13:47:27.850Z,7.61
2023-03-16T13:48:37.365Z,7.63
2023-03-16T13:49:54.972Z,7.65
2023-03-16T13:50:58.823Z,7.65
2023-03-16T13:52:03.872Z,7.66
2023-03-16T13:53:30.566Z,7.65
2023-03-16T13:54:37.354Z,7.70
2023-03-16T13:55:41.721Z,7.71
2023-03-16T13:56:44.564Z,7.69
2023-03-16T13:57:49.608Z,7.69
2023-03-16T13:58:53.996Z,7.73
2023-03-16T14:00:20.304Z,7.72
2023-03-16T14:01:27.588Z,7.67
2023-03-16T14:02:31.128Z,7.70
2023-03-16T14:03:39.335Z,7.65
2023-03-16T14:04:43.470Z,7.62
2023-03-16T14:05:47.624Z,7.62
2023-03-16T14:07:00.264Z,7.57
2023-03-16T14:08:05.100Z,7.54
2023-03-16T14:09:17.957Z,7.47
2023-03-16T14:10:22.980Z,7.45
2023-03-16T14:11:26.987Z,7.39
2023-03-16T14:12:29.708Z,7.36
2023-03-16T14:13:36.319Z,7.31
2023-03-16T14:14:41.361Z,7.32
2023-03-16T14:15:45.420Z,7.28
2023-03-16T14:16:48.980Z,7.26
2023-03-16T14:17:52.543Z,7.22
2023-03-16T14:19:06.134Z,7.21
2023-03-16T14:20:20.190Z,7.23
2023-03-16T14:21:28.608Z,7.22
2023-03-16T14:22:37.028Z,7.24
2023-03-16T14:23:48.379Z,7.23
2023-03-16T14:24:55.179Z,7.29
2023-03-16T14:26:02.221Z,7.36
2023-03-16T14:27:17.330Z,7.39
2023-03-16T14:28:27.470Z,7.44
2023-03-16T14:29:31.601Z,7.52
2023-03-16T14:30:34.437Z,7.57
2023-03-16T14:31:39.698Z,7.61
2023-03-16T14:32:42.633Z,7.66
2023-03-16T14:33:46.137Z,7.68
2023-03-16T14:34:51.123Z,7.68
2023-03-16T14:35:56.427Z,7.68
2023-03-16T14:37:10.215Z,7.69
2023-03-16T14:38:33.267Z,7.73
2023-03-16T14:39:36.309Z,7.75
2023-03-16T14:40:40.507Z,7.78
2023-03-16T14:41:43.895Z,7.80
2023-03-16T14:42:46.838Z,7.81
2023-03-16T14:43:54.211Z,7.79
2023-03-16T14:44:59.977Z,7.75
2023-03-16T14:46:07.579Z,7.70
2023-03-16T14:47:18.244Z,7.64
2023-03-16T14:48:22.191Z,7.62
2023-03-16T14:49:29.627Z,7.61
2023-03-16T14:50:34.614Z,7.63
2023-03-16T14:51:40.741Z,7.61
2023-03-16T14:52:45.714Z,7.63